sensor_id;sensor_type;location;lat;lon;timestamp;temperature;humidity
25933;DHT22;13731;51.166;4.474;2023-04-08T00:02:04;10.10;99.90
25933;DHT22;13731;51.166;4.474;2023-04-08T00:04:30;10.20;99.90
25933;DHT22;13731;51.166;4.474;2023-04-08T00:06:56;10.20;99.90
25933;DHT22;13731;51.166;4.474;2023-04-08T00:09:22;10.20;99.90
25933;DHT22;13731;51.166;4.474;2023-04-08T00:11:48;10.10;99.90
25933;DHT22;13731;51.166;4.474;2023-04-08T00:14:13;10.20;99.90
25933;DHT22;13731;51.166;4.474;2023-04-08T00:16:40;10.20;99.90
25933;DHT22;13731;51.166;4.474;2023-04-08T00:19:06;10.20;99.90
25933;DHT22;13731;51.166;4.474;2023-04-08T00:21:31;10.20;99.90
25933;DHT22;13731;51.166;4.474;2023-04-08T00:23:57;10.30;1.00
25933;DHT22;13731;51.166;4.474;2023-04-08T00:26:23;10.30;99.90
25933;DHT22;13731;51.166;4.474;2023-04-08T00:28:49;10.40;99.90
25933;DHT22;13731;51.166;4.474;2023-04-08T00:31:15;10.50;47.30
25933;DHT22;13731;51.166;4.474;2023-04-08T00:33:41;10.50;99.90
25933;DHT22;13731;51.166;4.474;2023-04-08T00:36:09;10.40;99.90
25933;DHT22;13731;51.166;4.474;2023-04-08T00:38:35;10.40;99.90
25933;DHT22;13731;51.166;4.474;2023-04-08T00:41:01;10.40;99.90
25933;DHT22;13731;51.166;4.474;2023-04-08T00:43:27;10.40;99.90
25933;DHT22;13731;51.166;4.474;2023-04-08T00:45:53;10.40;99.90
25933;DHT22;13731;51.166;4.474;2023-04-08T00:48:19;10.40;99.90
25933;DHT22;13731;51.166;4.474;2023-04-08T00:50:45;10.50;1.00
25933;DHT22;13731;51.166;4.474;2023-04-08T00:53:16;10.50;99.90
25933;DHT22;13731;51.166;4.474;2023-04-08T00:55:43;10.70;1.00
25933;DHT22;13731;51.166;4.474;2023-04-08T00:58:08;10.80;99.90
25933;DHT22;13731;51.166;4.474;2023-04-08T01:00:35;10.80;99.90
25933;DHT22;13731;51.166;4.474;2023-04-08T01:05:55;10.50;3.90
25933;DHT22;13731;51.166;4.474;2023-04-08T01:08:26;10.40;99.90
25933;DHT22;13731;51.166;4.474;2023-04-08T01:10:58;10.50;99.90
25933;DHT22;13731;51.166;4.474;2023-04-08T01:13:29;10.70;1.00
25933;DHT22;13731;51.166;4.474;2023-04-08T01:15:55;10.70;1.00
25933;DHT22;13731;51.166;4.474;2023-04-08T01:18:22;10.70;1.00
25933;DHT22;13731;51.166;4.474;2023-04-08T01:20:49;10.70;1.00
25933;DHT22;13731;51.166;4.474;2023-04-08T01:26:24;10.60;1.00
25933;DHT22;13731;51.166;4.474;2023-04-08T01:28:53;10.40;99.90
25933;DHT22;13731;51.166;4.474;2023-04-08T01:31:21;10.20;99.90
25933;DHT22;13731;51.166;4.474;2023-04-08T01:33:50;10.20;1.00
25933;DHT22;13731;51.166;4.474;2023-04-08T01:36:17;10.40;99.90
25933;DHT22;13731;51.166;4.474;2023-04-08T01:38:47;10.30;1.00
25933;DHT22;13731;51.166;4.474;2023-04-08T01:41:16;10.30;99.90
25933;DHT22;13731;51.166;4.474;2023-04-08T01:43:43;10.40;22.10
25933;DHT22;13731;51.166;4.474;2023-04-08T01:46:10;10.30;1.00
25933;DHT22;13731;51.166;4.474;2023-04-08T01:48:38;10.40;99.90
25933;DHT22;13731;51.166;4.474;2023-04-08T01:51:05;10.40;92.50
25933;DHT22;13731;51.166;4.474;2023-04-08T01:53:31;10.30;99.90
25933;DHT22;13731;51.166;4.474;2023-04-08T01:56:06;10.30;99.90
25933;DHT22;13731;51.166;4.474;2023-04-08T01:58:40;10.50;1.00
25933;DHT22;13731;51.166;4.474;2023-04-08T02:01:10;10.30;16.40
25933;DHT22;13731;51.166;4.474;2023-04-08T02:03:37;10.40;99.90
25933;DHT22;13731;51.166;4.474;2023-04-08T02:06:06;10.40;1.00
25933;DHT22;13731;51.166;4.474;2023-04-08T02:08:33;10.30;99.90
25933;DHT22;13731;51.166;4.474;2023-04-08T02:11:00;10.20;1.00
25933;DHT22;13731;51.166;4.474;2023-04-08T02:13:26;10.30;1.00
25933;DHT22;13731;51.166;4.474;2023-04-08T02:15:56;10.30;1.00
25933;DHT22;13731;51.166;4.474;2023-04-08T02:18:25;10.20;1.00
25933;DHT22;13731;51.166;4.474;2023-04-08T02:23:31;10.50;1.00
25933;DHT22;13731;51.166;4.474;2023-04-08T02:25:59;10.60;99.90
25933;DHT22;13731;51.166;4.474;2023-04-08T02:28:28;10.70;1.00
25933;DHT22;13731;51.166;4.474;2023-04-08T02:30:56;10.50;1.00
25933;DHT22;13731;51.166;4.474;2023-04-08T02:33:23;10.40;1.00
25933;DHT22;13731;51.166;4.474;2023-04-08T02:35:52;10.50;1.00
25933;DHT22;13731;51.166;4.474;2023-04-08T02:38:20;10.50;1.00
25933;DHT22;13731;51.166;4.474;2023-04-08T02:40:49;10.40;92.80
25933;DHT22;13731;51.166;4.474;2023-04-08T02:43:16;10.40;99.90
25933;DHT22;13731;51.166;4.474;2023-04-08T02:45:43;10.40;99.90
25933;DHT22;13731;51.166;4.474;2023-04-08T02:48:10;10.40;1.00
25933;DHT22;13731;51.166;4.474;2023-04-08T02:50:37;10.30;99.90
25933;DHT22;13731;51.166;4.474;2023-04-08T02:53:03;10.20;1.00
25933;DHT22;13731;51.166;4.474;2023-04-08T02:55:31;10.00;1.00
25933;DHT22;13731;51.166;4.474;2023-04-08T02:57:57;10.00;99.90
25933;DHT22;13731;51.166;4.474;2023-04-08T03:00:23;10.00;99.90
25933;DHT22;13731;51.166;4.474;2023-04-08T03:02:49;10.20;49.50
25933;DHT22;13731;51.166;4.474;2023-04-08T03:05:15;10.10;95.30
25933;DHT22;13731;51.166;4.474;2023-04-08T03:07:42;10.00;99.90
25933;DHT22;13731;51.166;4.474;2023-04-08T03:10:08;10.20;99.90
25933;DHT22;13731;51.166;4.474;2023-04-08T03:12:34;10.40;1.00
25933;DHT22;13731;51.166;4.474;2023-04-08T03:15:00;10.40;99.90
25933;DHT22;13731;51.166;4.474;2023-04-08T03:17:28;10.50;1.00
25933;DHT22;13731;51.166;4.474;2023-04-08T03:19:54;10.40;99.90
25933;DHT22;13731;51.166;4.474;2023-04-08T03:22:20;10.30;99.90
25933;DHT22;13731;51.166;4.474;2023-04-08T03:24:46;10.40;99.90
25933;DHT22;13731;51.166;4.474;2023-04-08T03:27:12;10.50;99.90
25933;DHT22;13731;51.166;4.474;2023-04-08T03:29:38;10.40;58.50
25933;DHT22;13731;51.166;4.474;2023-04-08T03:32:04;10.30;99.90
25933;DHT22;13731;51.166;4.474;2023-04-08T03:34:32;10.30;99.90
25933;DHT22;13731;51.166;4.474;2023-04-08T03:36:59;10.40;1.00
25933;DHT22;13731;51.166;4.474;2023-04-08T03:39:24;10.40;99.90
25933;DHT22;13731;51.166;4.474;2023-04-08T03:41:51;10.50;99.90
25933;DHT22;13731;51.166;4.474;2023-04-08T03:44:17;10.50;99.20
25933;DHT22;13731;51.166;4.474;2023-04-08T03:46:43;10.40;99.90
25933;DHT22;13731;51.166;4.474;2023-04-08T03:49:09;10.40;99.90
25933;DHT22;13731;51.166;4.474;2023-04-08T03:51:35;10.30;99.90
25933;DHT22;13731;51.166;4.474;2023-04-08T03:54:00;10.30;1.00
25933;DHT22;13731;51.166;4.474;2023-04-08T03:56:26;10.20;1.00
25933;DHT22;13731;51.166;4.474;2023-04-08T03:58:52;10.20;99.90
25933;DHT22;13731;51.166;4.474;2023-04-08T04:01:18;10.30;1.00
25933;DHT22;13731;51.166;4.474;2023-04-08T04:03:44;10.30;1.00
25933;DHT22;13731;51.166;4.474;2023-04-08T04:06:10;10.30;1.00
25933;DHT22;13731;51.166;4.474;2023-04-08T04:08:36;10.30;3.80
25933;DHT22;13731;51.166;4.474;2023-04-08T04:11:01;10.30;1.00
25933;DHT22;13731;51.166;4.474;2023-04-08T04:13:27;10.30;99.90
25933;DHT22;13731;51.166;4.474;2023-04-08T04:15:53;10.20;99.90
25933;DHT22;13731;51.166;4.474;2023-04-08T04:18:22;10.10;99.90
25933;DHT22;13731;51.166;4.474;2023-04-08T04:20:47;10.00;1.00
25933;DHT22;13731;51.166;4.474;2023-04-08T04:23:13;10.00;1.00
25933;DHT22;13731;51.166;4.474;2023-04-08T04:25:42;9.90;55.90
25933;DHT22;13731;51.166;4.474;2023-04-08T04:28:08;10.10;1.00
25933;DHT22;13731;51.166;4.474;2023-04-08T04:30:38;10.20;99.90
25933;DHT22;13731;51.166;4.474;2023-04-08T04:33:05;10.20;99.90
25933;DHT22;13731;51.166;4.474;2023-04-08T04:35:31;10.20;1.00
25933;DHT22;13731;51.166;4.474;2023-04-08T04:37:58;10.40;99.90
25933;DHT22;13731;51.166;4.474;2023-04-08T04:40:24;10.40;1.00
25933;DHT22;13731;51.166;4.474;2023-04-08T04:42:50;10.30;99.90
25933;DHT22;13731;51.166;4.474;2023-04-08T04:45:16;10.10;1.00
25933;DHT22;13731;51.166;4.474;2023-04-08T04:47:42;10.00;99.90
25933;DHT22;13731;51.166;4.474;2023-04-08T04:50:08;10.00;99.90
25933;DHT22;13731;51.166;4.474;2023-04-08T04:52:35;9.90;99.90
25933;DHT22;13731;51.166;4.474;2023-04-08T04:55:01;9.90;1.00
25933;DHT22;13731;51.166;4.474;2023-04-08T04:57:27;9.90;99.90
25933;DHT22;13731;51.166;4.474;2023-04-08T04:59:53;10.00;99.90
25933;DHT22;13731;51.166;4.474;2023-04-08T05:02:18;9.90;1.00
25933;DHT22;13731;51.166;4.474;2023-04-08T05:04:45;9.90;1.00
25933;DHT22;13731;51.166;4.474;2023-04-08T05:07:10;9.90;1.00
25933;DHT22;13731;51.166;4.474;2023-04-08T05:09:36;9.90;1.00
25933;DHT22;13731;51.166;4.474;2023-04-08T05:12:02;9.80;1.00
25933;DHT22;13731;51.166;4.474;2023-04-08T05:14:29;10.10;1.00
25933;DHT22;13731;51.166;4.474;2023-04-08T05:16:55;10.20;99.90
25933;DHT22;13731;51.166;4.474;2023-04-08T05:19:22;10.20;99.90
25933;DHT22;13731;51.166;4.474;2023-04-08T05:21:47;10.30;4.10
25933;DHT22;13731;51.166;4.474;2023-04-08T05:24:13;10.10;1.00
25933;DHT22;13731;51.166;4.474;2023-04-08T05:26:39;9.90;99.90
25933;DHT22;13731;51.166;4.474;2023-04-08T05:29:05;9.80;99.90
25933;DHT22;13731;51.166;4.474;2023-04-08T05:31:31;9.50;1.00
25933;DHT22;13731;51.166;4.474;2023-04-08T05:33:57;9.50;90.70
25933;DHT22;13731;51.166;4.474;2023-04-08T05:36:23;9.40;42.70
25933;DHT22;13731;51.166;4.474;2023-04-08T05:38:49;9.40;30.70
25933;DHT22;13731;51.166;4.474;2023-04-08T05:41:15;9.40;44.80
25933;DHT22;13731;51.166;4.474;2023-04-08T05:43:41;9.30;67.20
25933;DHT22;13731;51.166;4.474;2023-04-08T05:46:08;9.30;99.90
25933;DHT22;13731;51.166;4.474;2023-04-08T05:48:34;9.50;99.90
25933;DHT22;13731;51.166;4.474;2023-04-08T05:51:00;9.50;95.80
25933;DHT22;13731;51.166;4.474;2023-04-08T05:53:26;9.50;98.60
25933;DHT22;13731;51.166;4.474;2023-04-08T05:55:52;9.50;99.90
25933;DHT22;13731;51.166;4.474;2023-04-08T05:58:18;9.50;99.90
25933;DHT22;13731;51.166;4.474;2023-04-08T06:00:44;9.60;99.90
25933;DHT22;13731;51.166;4.474;2023-04-08T06:03:10;9.70;1.00
25933;DHT22;13731;51.166;4.474;2023-04-08T06:05:36;9.60;1.00
25933;DHT22;13731;51.166;4.474;2023-04-08T06:08:02;9.70;1.00
25933;DHT22;13731;51.166;4.474;2023-04-08T06:10:27;9.60;1.00
25933;DHT22;13731;51.166;4.474;2023-04-08T06:12:54;9.50;48.70
25933;DHT22;13731;51.166;4.474;2023-04-08T06:15:19;9.60;99.90
25933;DHT22;13731;51.166;4.474;2023-04-08T06:17:45;9.80;99.90
25933;DHT22;13731;51.166;4.474;2023-04-08T06:20:11;10.00;1.00
25933;DHT22;13731;51.166;4.474;2023-04-08T06:22:37;10.10;1.00
25933;DHT22;13731;51.166;4.474;2023-04-08T06:25:04;10.30;1.00
25933;DHT22;13731;51.166;4.474;2023-04-08T06:27:30;10.40;1.00
25933;DHT22;13731;51.166;4.474;2023-04-08T06:29:56;10.40;1.00
25933;DHT22;13731;51.166;4.474;2023-04-08T06:32:22;10.60;99.90
25933;DHT22;13731;51.166;4.474;2023-04-08T06:34:48;10.80;1.00
25933;DHT22;13731;51.166;4.474;2023-04-08T06:37:14;11.00;99.90
25933;DHT22;13731;51.166;4.474;2023-04-08T06:39:40;11.10;99.90
25933;DHT22;13731;51.166;4.474;2023-04-08T06:42:06;11.00;99.90
25933;DHT22;13731;51.166;4.474;2023-04-08T06:44:42;10.90;1.00
25933;DHT22;13731;51.166;4.474;2023-04-08T06:47:08;10.50;1.00
25933;DHT22;13731;51.166;4.474;2023-04-08T06:49:33;10.60;99.90
25933;DHT22;13731;51.166;4.474;2023-04-08T06:51:59;10.80;99.90
25933;DHT22;13731;51.166;4.474;2023-04-08T06:54:26;10.70;1.00
25933;DHT22;13731;51.166;4.474;2023-04-08T06:56:52;10.70;92.50
25933;DHT22;13731;51.166;4.474;2023-04-08T06:59:18;10.80;99.90
25933;DHT22;13731;51.166;4.474;2023-04-08T07:01:44;11.10;1.00
25933;DHT22;13731;51.166;4.474;2023-04-08T07:04:10;11.20;1.00
25933;DHT22;13731;51.166;4.474;2023-04-08T07:06:36;11.20;1.00
25933;DHT22;13731;51.166;4.474;2023-04-08T07:09:02;11.40;1.00
25933;DHT22;13731;51.166;4.474;2023-04-08T07:11:29;11.60;1.00
25933;DHT22;13731;51.166;4.474;2023-04-08T07:13:55;11.60;99.90
25933;DHT22;13731;51.166;4.474;2023-04-08T07:16:20;11.80;1.00
25933;DHT22;13731;51.166;4.474;2023-04-08T07:18:46;11.80;1.00
25933;DHT22;13731;51.166;4.474;2023-04-08T07:21:12;12.00;99.90
25933;DHT22;13731;51.166;4.474;2023-04-08T07:23:38;12.00;99.90
25933;DHT22;13731;51.166;4.474;2023-04-08T07:26:04;11.70;1.00
25933;DHT22;13731;51.166;4.474;2023-04-08T07:28:30;11.80;99.90
25933;DHT22;13731;51.166;4.474;2023-04-08T07:31:00;11.80;99.90
25933;DHT22;13731;51.166;4.474;2023-04-08T07:33:32;11.70;1.00
25933;DHT22;13731;51.166;4.474;2023-04-08T07:35:58;11.80;1.00
25933;DHT22;13731;51.166;4.474;2023-04-08T07:38:24;12.00;99.90
25933;DHT22;13731;51.166;4.474;2023-04-08T07:40:49;12.00;99.90
25933;DHT22;13731;51.166;4.474;2023-04-08T07:43:16;12.10;99.90
25933;DHT22;13731;51.166;4.474;2023-04-08T07:45:42;12.10;1.00
25933;DHT22;13731;51.166;4.474;2023-04-08T07:48:07;12.50;99.90
25933;DHT22;13731;51.166;4.474;2023-04-08T07:50:35;12.40;1.00
25933;DHT22;13731;51.166;4.474;2023-04-08T07:53:02;12.60;99.90
25933;DHT22;13731;51.166;4.474;2023-04-08T07:55:32;13.00;99.90
25933;DHT22;13731;51.166;4.474;2023-04-08T07:57:58;13.30;1.00
25933;DHT22;13731;51.166;4.474;2023-04-08T08:00:24;13.40;99.90
25933;DHT22;13731;51.166;4.474;2023-04-08T08:02:50;13.30;1.00
25933;DHT22;13731;51.166;4.474;2023-04-08T08:05:16;13.10;47.80
25933;DHT22;13731;51.166;4.474;2023-04-08T08:07:42;13.10;99.90
25933;DHT22;13731;51.166;4.474;2023-04-08T08:10:08;12.90;99.90
25933;DHT22;13731;51.166;4.474;2023-04-08T08:12:35;13.10;51.00
25933;DHT22;13731;51.166;4.474;2023-04-08T08:15:02;13.00;99.90
25933;DHT22;13731;51.166;4.474;2023-04-08T08:17:27;12.80;99.90
25933;DHT22;13731;51.166;4.474;2023-04-08T08:19:56;12.40;1.00
25933;DHT22;13731;51.166;4.474;2023-04-08T08:22:22;12.10;99.90
25933;DHT22;13731;51.166;4.474;2023-04-08T08:24:47;12.10;1.00
25933;DHT22;13731;51.166;4.474;2023-04-08T08:27:13;12.40;1.00
25933;DHT22;13731;51.166;4.474;2023-04-08T08:29:39;12.50;99.90
25933;DHT22;13731;51.166;4.474;2023-04-08T08:32:05;12.50;1.00
25933;DHT22;13731;51.166;4.474;2023-04-08T08:34:31;12.90;1.00
25933;DHT22;13731;51.166;4.474;2023-04-08T08:36:58;13.30;81.30
25933;DHT22;13731;51.166;4.474;2023-04-08T08:39:23;13.60;1.00
25933;DHT22;13731;51.166;4.474;2023-04-08T08:41:49;13.90;1.00
25933;DHT22;13731;51.166;4.474;2023-04-08T08:44:15;13.60;99.90
25933;DHT22;13731;51.166;4.474;2023-04-08T08:46:43;13.70;99.90
25933;DHT22;13731;51.166;4.474;2023-04-08T08:49:10;13.50;99.90
25933;DHT22;13731;51.166;4.474;2023-04-08T08:51:38;13.00;1.00
25933;DHT22;13731;51.166;4.474;2023-04-08T08:54:04;12.90;47.80
25933;DHT22;13731;51.166;4.474;2023-04-08T08:56:31;13.30;1.00
25933;DHT22;13731;51.166;4.474;2023-04-08T08:58:57;13.30;99.90
25933;DHT22;13731;51.166;4.474;2023-04-08T09:01:37;13.50;99.90
25933;DHT22;13731;51.166;4.474;2023-04-08T09:04:19;14.10;1.00
25933;DHT22;13731;51.166;4.474;2023-04-08T09:06:46;14.30;1.00
25933;DHT22;13731;51.166;4.474;2023-04-08T09:09:13;14.40;1.00
25933;DHT22;13731;51.166;4.474;2023-04-08T09:11:48;14.30;99.90
25933;DHT22;13731;51.166;4.474;2023-04-08T09:14:32;14.00;1.00
25933;DHT22;13731;51.166;4.474;2023-04-08T09:16:58;14.00;99.90
25933;DHT22;13731;51.166;4.474;2023-04-08T09:19:25;14.10;1.00
25933;DHT22;13731;51.166;4.474;2023-04-08T09:22:09;14.30;1.00
25933;DHT22;13731;51.166;4.474;2023-04-08T09:24:36;14.30;1.00
25933;DHT22;13731;51.166;4.474;2023-04-08T09:27:03;14.80;99.90
25933;DHT22;13731;51.166;4.474;2023-04-08T09:29:29;15.60;65.10
25933;DHT22;13731;51.166;4.474;2023-04-08T09:32:00;15.80;1.00
25933;DHT22;13731;51.166;4.474;2023-04-08T09:34:27;15.70;1.00
25933;DHT22;13731;51.166;4.474;2023-04-08T09:36:55;15.80;1.00
25933;DHT22;13731;51.166;4.474;2023-04-08T09:39:21;16.20;1.00
25933;DHT22;13731;51.166;4.474;2023-04-08T09:41:48;17.20;1.00
25933;DHT22;13731;51.166;4.474;2023-04-08T09:44:15;18.00;99.90
25933;DHT22;13731;51.166;4.474;2023-04-08T09:47:11;18.50;99.90
25933;DHT22;13731;51.166;4.474;2023-04-08T09:49:50;18.40;99.90
25933;DHT22;13731;51.166;4.474;2023-04-08T09:52:41;17.50;99.90
25933;DHT22;13731;51.166;4.474;2023-04-08T09:55:08;16.90;99.90
25933;DHT22;13731;51.166;4.474;2023-04-08T09:57:43;16.30;99.90
25933;DHT22;13731;51.166;4.474;2023-04-08T10:00:13;15.80;1.00
25933;DHT22;13731;51.166;4.474;2023-04-08T10:02:58;15.70;1.00
25933;DHT22;13731;51.166;4.474;2023-04-08T10:05:26;15.90;1.00
25933;DHT22;13731;51.166;4.474;2023-04-08T10:07:52;15.70;1.00
25933;DHT22;13731;51.166;4.474;2023-04-08T10:10:20;15.20;1.00
25933;DHT22;13731;51.166;4.474;2023-04-08T10:12:47;15.50;1.00
25933;DHT22;13731;51.166;4.474;2023-04-08T10:15:29;16.00;1.00
25933;DHT22;13731;51.166;4.474;2023-04-08T10:20:45;16.40;99.90
25933;DHT22;13731;51.166;4.474;2023-04-08T10:23:13;16.30;99.90
25933;DHT22;13731;51.166;4.474;2023-04-08T10:25:45;16.50;99.90
25933;DHT22;13731;51.166;4.474;2023-04-08T10:33:16;16.70;99.90
25933;DHT22;13731;51.166;4.474;2023-04-08T10:35:47;16.90;99.90
25933;DHT22;13731;51.166;4.474;2023-04-08T10:38:16;17.50;99.90
25933;DHT22;13731;51.166;4.474;2023-04-08T10:40:43;17.50;99.90
25933;DHT22;13731;51.166;4.474;2023-04-08T10:43:11;17.50;99.90
25933;DHT22;13731;51.166;4.474;2023-04-08T10:45:37;16.50;99.90
25933;DHT22;13731;51.166;4.474;2023-04-08T10:48:16;17.20;99.90
25933;DHT22;13731;51.166;4.474;2023-04-08T10:51:04;18.30;99.90
25933;DHT22;13731;51.166;4.474;2023-04-08T10:56:05;22.60;41.00
25933;DHT22;13731;51.166;4.474;2023-04-08T10:58:31;23.10;2.80
25933;DHT22;13731;51.166;4.474;2023-04-08T11:01:07;21.80;1.00
25933;DHT22;13731;51.166;4.474;2023-04-08T11:03:34;20.80;1.00
25933;DHT22;13731;51.166;4.474;2023-04-08T11:06:00;19.60;5.10
25933;DHT22;13731;51.166;4.474;2023-04-08T11:08:28;18.60;23.90
25933;DHT22;13731;51.166;4.474;2023-04-08T11:10:54;18.20;61.20
25933;DHT22;13731;51.166;4.474;2023-04-08T11:13:21;18.10;96.00
25933;DHT22;13731;51.166;4.474;2023-04-08T11:15:48;18.80;91.80
25933;DHT22;13731;51.166;4.474;2023-04-08T11:18:16;20.00;37.40
25933;DHT22;13731;51.166;4.474;2023-04-08T11:20:43;19.80;19.80
25933;DHT22;13731;51.166;4.474;2023-04-08T11:23:13;19.20;16.90
25933;DHT22;13731;51.166;4.474;2023-04-08T11:25:39;19.90;15.60
25933;DHT22;13731;51.166;4.474;2023-04-08T11:28:06;20.40;3.70
25933;DHT22;13731;51.166;4.474;2023-04-08T11:30:32;22.20;1.00
25933;DHT22;13731;51.166;4.474;2023-04-08T11:32:58;24.70;1.00
25933;DHT22;13731;51.166;4.474;2023-04-08T11:35:28;25.90;1.00
25933;DHT22;13731;51.166;4.474;2023-04-08T11:37:57;23.30;1.00
25933;DHT22;13731;51.166;4.474;2023-04-08T11:40:23;22.10;1.00
25933;DHT22;13731;51.166;4.474;2023-04-08T11:42:51;22.80;1.00
25933;DHT22;13731;51.166;4.474;2023-04-08T11:45:19;23.90;1.00
25933;DHT22;13731;51.166;4.474;2023-04-08T11:47:46;25.40;1.00
25933;DHT22;13731;51.166;4.474;2023-04-08T11:50:22;26.10;1.00
25933;DHT22;13731;51.166;4.474;2023-04-08T11:52:49;25.10;1.00
25933;DHT22;13731;51.166;4.474;2023-04-08T11:55:30;24.60;1.00
25933;DHT22;13731;51.166;4.474;2023-04-08T11:58:03;23.90;1.00
25933;DHT22;13731;51.166;4.474;2023-04-08T12:00:30;22.90;1.00
25933;DHT22;13731;51.166;4.474;2023-04-08T12:02:57;23.80;1.00
25933;DHT22;13731;51.166;4.474;2023-04-08T12:05:23;25.50;1.00
25933;DHT22;13731;51.166;4.474;2023-04-08T12:07:49;25.20;1.00
25933;DHT22;13731;51.166;4.474;2023-04-08T12:10:15;24.90;1.00
25933;DHT22;13731;51.166;4.474;2023-04-08T12:12:41;23.90;1.00
25933;DHT22;13731;51.166;4.474;2023-04-08T12:15:07;21.10;1.00
25933;DHT22;13731;51.166;4.474;2023-04-08T12:17:34;20.00;1.00
25933;DHT22;13731;51.166;4.474;2023-04-08T12:20:00;19.50;1.00
25933;DHT22;13731;51.166;4.474;2023-04-08T12:22:26;20.50;1.00
25933;DHT22;13731;51.166;4.474;2023-04-08T12:24:54;21.10;1.00
25933;DHT22;13731;51.166;4.474;2023-04-08T12:27:20;19.90;1.00
25933;DHT22;13731;51.166;4.474;2023-04-08T12:29:45;19.10;1.00
25933;DHT22;13731;51.166;4.474;2023-04-08T12:32:11;19.70;1.00
25933;DHT22;13731;51.166;4.474;2023-04-08T12:34:37;21.80;1.00
25933;DHT22;13731;51.166;4.474;2023-04-08T12:37:03;23.80;1.00
25933;DHT22;13731;51.166;4.474;2023-04-08T12:39:29;23.80;1.00
25933;DHT22;13731;51.166;4.474;2023-04-08T12:41:55;24.50;1.00
25933;DHT22;13731;51.166;4.474;2023-04-08T12:44:21;25.80;1.00
25933;DHT22;13731;51.166;4.474;2023-04-08T12:46:47;27.70;1.00
25933;DHT22;13731;51.166;4.474;2023-04-08T12:49:13;28.20;1.00
25933;DHT22;13731;51.166;4.474;2023-04-08T12:51:39;28.70;1.00
25933;DHT22;13731;51.166;4.474;2023-04-08T12:54:05;28.90;1.00
25933;DHT22;13731;51.166;4.474;2023-04-08T12:56:31;28.60;1.00
25933;DHT22;13731;51.166;4.474;2023-04-08T12:58:58;27.10;1.00
25933;DHT22;13731;51.166;4.474;2023-04-08T13:01:24;26.00;1.00
25933;DHT22;13731;51.166;4.474;2023-04-08T13:03:50;24.40;1.00
25933;DHT22;13731;51.166;4.474;2023-04-08T13:06:15;22.70;1.00
25933;DHT22;13731;51.166;4.474;2023-04-08T13:08:41;23.70;1.00
25933;DHT22;13731;51.166;4.474;2023-04-08T13:11:07;23.40;1.00
25933;DHT22;13731;51.166;4.474;2023-04-08T13:13:34;22.60;1.00
25933;DHT22;13731;51.166;4.474;2023-04-08T13:16:00;22.90;1.00
25933;DHT22;13731;51.166;4.474;2023-04-08T13:18:25;22.80;1.00
25933;DHT22;13731;51.166;4.474;2023-04-08T13:20:51;23.90;1.00
25933;DHT22;13731;51.166;4.474;2023-04-08T13:23:19;25.40;1.00
25933;DHT22;13731;51.166;4.474;2023-04-08T13:25:45;26.00;1.00
25933;DHT22;13731;51.166;4.474;2023-04-08T13:28:12;27.30;1.00
25933;DHT22;13731;51.166;4.474;2023-04-08T13:30:37;24.00;1.00
25933;DHT22;13731;51.166;4.474;2023-04-08T13:33:03;22.40;1.00
25933;DHT22;13731;51.166;4.474;2023-04-08T13:35:29;22.80;1.00
25933;DHT22;13731;51.166;4.474;2023-04-08T13:37:55;25.90;1.00
25933;DHT22;13731;51.166;4.474;2023-04-08T13:40:22;27.90;1.00
25933;DHT22;13731;51.166;4.474;2023-04-08T13:42:48;28.80;1.00
25933;DHT22;13731;51.166;4.474;2023-04-08T13:45:14;29.70;1.00
25933;DHT22;13731;51.166;4.474;2023-04-08T13:47:40;30.70;1.00
25933;DHT22;13731;51.166;4.474;2023-04-08T13:50:06;30.10;1.00
25933;DHT22;13731;51.166;4.474;2023-04-08T13:52:33;31.00;1.00
25933;DHT22;13731;51.166;4.474;2023-04-08T13:54:59;28.40;1.00
25933;DHT22;13731;51.166;4.474;2023-04-08T13:57:25;26.60;1.00
25933;DHT22;13731;51.166;4.474;2023-04-08T13:59:51;24.30;1.00
25933;DHT22;13731;51.166;4.474;2023-04-08T14:02:16;22.50;1.00
25933;DHT22;13731;51.166;4.474;2023-04-08T14:04:42;21.90;1.00
25933;DHT22;13731;51.166;4.474;2023-04-08T14:07:11;20.60;1.00
25933;DHT22;13731;51.166;4.474;2023-04-08T14:09:37;20.00;1.00
25933;DHT22;13731;51.166;4.474;2023-04-08T14:12:03;20.10;1.00
25933;DHT22;13731;51.166;4.474;2023-04-08T14:14:30;19.40;1.00
25933;DHT22;13731;51.166;4.474;2023-04-08T14:16:55;19.50;1.00
25933;DHT22;13731;51.166;4.474;2023-04-08T14:19:24;19.00;1.00
25933;DHT22;13731;51.166;4.474;2023-04-08T14:21:50;19.40;1.00
25933;DHT22;13731;51.166;4.474;2023-04-08T14:24:16;21.00;1.00
25933;DHT22;13731;51.166;4.474;2023-04-08T14:26:42;22.70;1.00
25933;DHT22;13731;51.166;4.474;2023-04-08T14:29:08;24.60;1.00
25933;DHT22;13731;51.166;4.474;2023-04-08T14:31:34;26.20;1.00
25933;DHT22;13731;51.166;4.474;2023-04-08T14:34:01;26.40;1.00
25933;DHT22;13731;51.166;4.474;2023-04-08T14:36:27;25.30;1.00
25933;DHT22;13731;51.166;4.474;2023-04-08T14:38:53;24.60;1.00
25933;DHT22;13731;51.166;4.474;2023-04-08T14:41:20;23.40;1.00
25933;DHT22;13731;51.166;4.474;2023-04-08T14:43:46;22.80;1.00
25933;DHT22;13731;51.166;4.474;2023-04-08T14:46:12;22.20;1.00
25933;DHT22;13731;51.166;4.474;2023-04-08T14:48:39;21.90;1.00
25933;DHT22;13731;51.166;4.474;2023-04-08T14:51:05;21.90;1.00
25933;DHT22;13731;51.166;4.474;2023-04-08T14:53:31;22.00;1.00
25933;DHT22;13731;51.166;4.474;2023-04-08T14:55:58;22.00;1.00
25933;DHT22;13731;51.166;4.474;2023-04-08T14:58:24;21.50;1.00
25933;DHT22;13731;51.166;4.474;2023-04-08T15:00:50;20.90;1.00
25933;DHT22;13731;51.166;4.474;2023-04-08T15:03:16;20.80;1.00
25933;DHT22;13731;51.166;4.474;2023-04-08T15:05:54;19.70;1.00
25933;DHT22;13731;51.166;4.474;2023-04-08T15:08:20;18.60;1.00
25933;DHT22;13731;51.166;4.474;2023-04-08T15:10:46;18.20;1.00
25933;DHT22;13731;51.166;4.474;2023-04-08T15:13:12;18.00;1.00
25933;DHT22;13731;51.166;4.474;2023-04-08T15:15:38;17.80;1.00
25933;DHT22;13731;51.166;4.474;2023-04-08T15:18:04;17.40;1.00
25933;DHT22;13731;51.166;4.474;2023-04-08T15:20:30;17.30;1.00
25933;DHT22;13731;51.166;4.474;2023-04-08T15:22:55;17.30;1.00
25933;DHT22;13731;51.166;4.474;2023-04-08T15:25:21;17.60;1.00
25933;DHT22;13731;51.166;4.474;2023-04-08T15:27:47;17.90;1.00
25933;DHT22;13731;51.166;4.474;2023-04-08T15:30:13;17.90;1.00
25933;DHT22;13731;51.166;4.474;2023-04-08T15:32:39;18.40;1.00
25933;DHT22;13731;51.166;4.474;2023-04-08T15:35:06;20.10;1.00
25933;DHT22;13731;51.166;4.474;2023-04-08T15:37:32;21.60;1.00
25933;DHT22;13731;51.166;4.474;2023-04-08T15:39:59;22.10;1.00
25933;DHT22;13731;51.166;4.474;2023-04-08T15:42:25;23.00;1.00
25933;DHT22;13731;51.166;4.474;2023-04-08T15:44:51;23.40;1.00
25933;DHT22;13731;51.166;4.474;2023-04-08T15:47:17;23.70;1.00
25933;DHT22;13731;51.166;4.474;2023-04-08T15:49:43;24.90;1.00
25933;DHT22;13731;51.166;4.474;2023-04-08T15:52:09;25.10;1.00
25933;DHT22;13731;51.166;4.474;2023-04-08T15:54:35;26.10;1.00
25933;DHT22;13731;51.166;4.474;2023-04-08T15:57:01;25.90;1.00
25933;DHT22;13731;51.166;4.474;2023-04-08T15:59:30;25.90;1.00